createdAt,value
2022-10-21T00:03:06.494Z,14.75
2022-10-21T00:08:07.745Z,14.27
2022-10-21T00:13:09.298Z,14.05
2022-10-21T00:18:10.568Z,14.32
2022-10-21T00:23:11.912Z,14.90
2022-10-21T00:28:13.280Z,15.07
2022-10-21T00:33:14.658Z,14.63
2022-10-21T00:38:16.028Z,14.23
2022-10-21T00:43:17.648Z,14.85
2022-10-21T00:48:34.870Z,14.05
2022-10-21T00:53:39.881Z,14.70
2022-10-21T00:58:41.241Z,13.88
2022-10-21T01:03:42.596Z,14.32
2022-10-21T01:08:43.958Z,13.85
2022-10-21T01:13:51.695Z,13.93
2022-10-21T01:19:17.790Z,12.98
2022-10-21T01:24:44.216Z,13.45
2022-10-21T01:30:07.973Z,12.95
2022-10-21T01:35:23.462Z,14.00
2022-10-21T01:40:36.968Z,13.10
2022-10-21T01:45:46.610Z,12.47
2022-10-21T01:50:53.295Z,12.02
2022-10-21T01:55:55.691Z,12.40
2022-10-21T02:01:00.345Z,13.70
2022-10-21T02:06:01.837Z,12.88
2022-10-21T02:11:07.250Z,13.23
2022-10-21T02:16:11.645Z,12.05
2022-10-21T02:21:19.752Z,12.35
2022-10-21T02:26:23.125Z,12.93
2022-10-21T02:32:15.844Z,12.03
2022-10-21T02:37:30.089Z,13.35
2022-10-21T02:47:37.027Z,13.80
2022-10-21T02:52:38.451Z,13.53
2022-10-21T02:57:40.115Z,13.43
2022-10-21T03:02:42.087Z,12.05
2022-10-21T03:07:43.415Z,11.40
2022-10-21T03:12:44.650Z,11.02
2022-10-21T03:17:46.764Z,10.75
2022-10-21T03:22:48.118Z,11.23
2022-10-21T03:27:50.607Z,11.10
2022-10-21T03:32:51.888Z,10.85
2022-10-21T03:37:53.249Z,10.25
2022-10-21T03:42:54.506Z,9.27
2022-10-21T03:47:55.860Z,10.45
2022-10-21T03:52:57.108Z,10.52
2022-10-21T03:57:58.391Z,9.98
2022-10-21T04:02:59.753Z,10.00
2022-10-21T04:08:01.100Z,9.95
2022-10-21T04:13:02.418Z,10.50
2022-10-21T04:18:03.714Z,10.52
2022-10-21T04:23:05.015Z,11.10
2022-10-21T04:28:06.248Z,12.55
2022-10-21T04:33:07.652Z,13.40
2022-10-21T04:38:08.965Z,11.65
2022-10-21T04:43:10.242Z,13.15
2022-10-21T04:48:13.577Z,14.05
2022-10-21T04:53:15.150Z,13.83
2022-10-21T04:58:20.914Z,13.75
2022-10-21T05:03:23.266Z,12.68
2022-10-21T05:08:24.585Z,13.18
2022-10-21T05:13:26.734Z,13.65
2022-10-21T05:18:28.280Z,13.65
2022-10-21T05:23:30.499Z,12.85
2022-10-21T05:28:31.802Z,13.00
2022-10-21T05:33:33.130Z,13.15
2022-10-21T05:38:35.419Z,14.32
2022-10-21T05:43:38.105Z,15.20
2022-10-21T05:48:39.408Z,12.85
2022-10-21T05:53:40.788Z,11.80
2022-10-21T05:58:42.087Z,12.80
2022-10-21T06:03:43.393Z,13.25
2022-10-21T06:08:45.392Z,11.75
2022-10-21T06:13:47.210Z,11.85
2022-10-21T06:18:48.448Z,11.93
2022-10-21T06:23:52.955Z,12.13
2022-10-21T06:28:54.215Z,11.00
2022-10-21T06:33:55.486Z,10.55
2022-10-21T06:38:56.733Z,11.45
2022-10-21T06:43:58.032Z,10.63
2022-10-21T06:48:59.344Z,11.52
2022-10-21T06:54:00.683Z,11.60
2022-10-21T06:59:01.985Z,11.05
2022-10-21T07:04:05.873Z,11.00
2022-10-21T07:09:08.554Z,10.32
2022-10-21T07:14:11.962Z,11.57
2022-10-21T07:19:13.242Z,10.67
2022-10-21T07:24:17.585Z,10.63
2022-10-21T07:29:21.328Z,9.80
2022-10-21T07:34:22.908Z,10.15
2022-10-21T07:39:26.345Z,10.02
2022-10-21T07:44:27.664Z,11.00
2022-10-21T07:49:28.947Z,10.25
2022-10-21T07:54:30.332Z,10.57
2022-10-21T07:59:31.606Z,10.27
2022-10-21T08:04:33.372Z,10.18
2022-10-21T08:09:34.782Z,10.55
2022-10-21T08:14:36.074Z,10.25
2022-10-21T08:19:37.441Z,9.80
2022-10-21T08:24:41.535Z,9.20
2022-10-21T08:29:43.767Z,8.57
2022-10-21T08:34:45.011Z,8.88
2022-10-21T08:39:46.928Z,9.32
2022-10-21T08:44:55.493Z,8.38
2022-10-21T08:50:00.285Z,7.63
2022-10-21T08:55:04.710Z,8.27
2022-10-21T09:00:22.774Z,7.80
2022-10-21T09:05:46.027Z,8.82
2022-10-21T09:10:56.291Z,7.85
2022-10-21T09:16:21.530Z,8.20
2022-10-21T09:22:33.238Z,8.07
2022-10-21T09:27:32.025Z,7.35
2022-10-21T09:32:42.345Z,7.97
2022-10-21T09:38:02.239Z,7.85
2022-10-21T09:43:05.177Z,7.90
2022-10-21T09:48:18.904Z,8.25
2022-10-21T09:53:26.450Z,6.85
2022-10-21T09:58:43.480Z,7.95
2022-10-21T10:03:47.761Z,7.70
2022-10-21T10:08:49.088Z,7.22
2022-10-21T10:13:53.054Z,7.47
2022-10-21T10:19:23.463Z,7.63
2022-10-21T10:24:24.736Z,6.78
2022-10-21T10:29:28.096Z,5.60
2022-10-21T10:34:40.035Z,5.50
2022-10-21T10:39:45.662Z,5.80
2022-10-21T10:44:51.001Z,4.00
2022-10-21T10:49:52.495Z,3.50
2022-10-21T10:55:16.156Z,3.50
2022-10-21T11:00:22.922Z,3.60
2022-10-21T11:05:37.176Z,3.22
2022-10-21T11:15:55.149Z,4.07
2022-10-21T11:21:07.120Z,2.75
2022-10-21T11:26:41.043Z,2.75
2022-10-21T11:32:12.557Z,2.90
2022-10-21T11:37:58.838Z,2.88
2022-10-21T11:43:29.634Z,3.15
2022-10-21T11:48:36.259Z,3.35
2022-10-21T11:53:51.213Z,3.05
2022-10-21T11:59:23.079Z,2.80
2022-10-21T12:04:34.257Z,4.30
2022-10-21T12:10:04.074Z,3.85
2022-10-21T12:15:25.481Z,7.00
2022-10-21T12:20:27.137Z,3.13
2022-10-21T12:25:37.601Z,3.17
2022-10-21T12:30:50.857Z,2.42
2022-10-21T12:35:55.194Z,2.28
2022-10-21T12:41:24.648Z,8.35
2022-10-21T12:46:48.586Z,3.13
2022-10-21T13:02:10.170Z,2.50
2022-10-21T13:07:12.813Z,1.50
2022-10-21T13:12:17.103Z,1.20
2022-10-21T13:17:21.441Z,0.73
2022-10-21T13:22:49.455Z,0.80
2022-10-21T13:28:03.869Z,1.00
2022-10-21T13:33:14.782Z,0.90
2022-10-21T13:38:23.786Z,1.00
2022-10-21T13:43:29.157Z,1.08
2022-10-21T13:48:30.717Z,5.32
2022-10-21T13:53:37.979Z,4.50
2022-10-21T13:58:39.788Z,2.47
2022-10-21T14:03:42.297Z,2.38
2022-10-21T14:08:46.890Z,1.30
2022-10-21T14:13:50.479Z,7.65
2022-10-21T14:18:53.490Z,16.08
2022-10-21T14:23:55.122Z,2.60
2022-10-21T14:28:58.415Z,1.85
2022-10-21T14:33:59.788Z,2.88
2022-10-21T14:39:06.549Z,2.17
2022-10-21T14:44:16.034Z,3.15
2022-10-21T14:49:22.458Z,2.88
2022-10-21T14:54:29.812Z,24.70
2022-10-21T14:59:39.060Z,3.10
2022-10-21T15:04:43.537Z,1.98
2022-10-21T15:10:03.231Z,2.38
2022-10-21T15:15:06.002Z,6.65
2022-10-21T15:20:16.154Z,2.60
2022-10-21T15:25:19.299Z,2.42
2022-10-21T15:30:21.788Z,2.20
2022-10-21T15:35:23.856Z,1.55
2022-10-21T15:40:25.182Z,2.10
2022-10-21T15:45:26.466Z,1.50
2022-10-21T15:50:27.793Z,2.05
2022-10-21T15:55:29.029Z,1.95
2022-10-21T16:00:31.979Z,2.28
2022-10-21T16:05:33.309Z,2.10
2022-10-21T16:10:36.233Z,1.80
2022-10-21T16:15:37.540Z,2.13
2022-10-21T16:20:39.611Z,2.17
2022-10-21T16:25:40.921Z,1.75
2022-10-21T16:30:42.196Z,1.88
2022-10-21T16:35:48.373Z,2.33
2022-10-21T16:40:49.620Z,2.00
2022-10-21T16:45:51.362Z,2.50
2022-10-21T16:50:52.665Z,2.53
2022-10-21T16:55:53.910Z,3.17
2022-10-21T17:00:56.512Z,3.53
2022-10-21T17:05:57.790Z,4.03
2022-10-21T17:10:59.083Z,3.97
2022-10-21T17:16:00.388Z,3.35
2022-10-21T17:21:02.262Z,3.58
2022-10-21T17:26:03.549Z,3.53
2022-10-21T17:31:04.969Z,3.78
2022-10-21T17:36:06.576Z,3.58
2022-10-21T17:41:12.923Z,3.13
2022-10-21T17:46:20.552Z,3.70
2022-10-21T17:51:23.032Z,3.55
2022-10-21T17:56:24.339Z,5.60
2022-10-21T18:01:26.091Z,4.05
2022-10-21T18:06:27.574Z,3.75
2022-10-21T18:11:28.813Z,3.85
2022-10-21T18:16:30.316Z,3.75
2022-10-21T18:21:31.635Z,3.28
2022-10-21T18:26:33.128Z,4.10
2022-10-21T18:31:36.282Z,3.58
2022-10-21T18:36:37.910Z,3.63
2022-10-21T18:41:39.403Z,2.78
2022-10-21T18:46:42.441Z,3.40
2022-10-21T18:51:43.989Z,3.70
2022-10-21T18:56:45.378Z,3.67
2022-10-21T19:01:46.688Z,3.47
2022-10-21T19:06:48.630Z,4.00
2022-10-21T19:11:50.027Z,3.70
2022-10-21T19:16:51.279Z,3.55
2022-10-21T19:21:52.797Z,3.22
2022-10-21T19:26:57.167Z,3.30
2022-10-21T19:31:58.462Z,3.00
2022-10-21T19:36:59.778Z,3.33
2022-10-21T19:42:01.280Z,3.28
2022-10-21T19:47:02.545Z,3.67
2022-10-21T19:52:04.000Z,4.15
2022-10-21T19:57:05.349Z,2.95
2022-10-21T20:02:06.705Z,3.25
2022-10-21T20:07:07.985Z,3.00
2022-10-21T20:12:09.498Z,2.80
2022-10-21T20:17:11.721Z,2.78
2022-10-21T20:22:15.513Z,2.50
2022-10-21T20:27:16.894Z,3.17
2022-10-21T20:32:18.130Z,2.50
2022-10-21T20:37:19.461Z,1.90
2022-10-21T20:42:20.746Z,2.65
2022-10-21T20:47:22.001Z,2.20
2022-10-21T20:52:23.361Z,3.13
2022-10-21T20:57:24.700Z,3.67
2022-10-21T21:02:25.933Z,3.15
2022-10-21T21:07:27.194Z,3.38
2022-10-21T21:12:28.774Z,2.95
2022-10-21T21:17:30.050Z,2.85
2022-10-21T21:22:31.326Z,2.65
2022-10-21T21:27:32.631Z,3.10
2022-10-21T21:32:33.897Z,2.53
2022-10-21T21:37:35.168Z,2.40
2022-10-21T21:42:36.621Z,2.58
2022-10-21T21:47:37.845Z,3.30
2022-10-21T21:52:39.221Z,4.13
2022-10-21T21:57:40.467Z,3.78
2022-10-21T22:02:41.762Z,4.45
2022-10-21T22:07:43.288Z,4.82
2022-10-21T22:12:45.022Z,5.75
2022-10-21T22:17:48.564Z,4.65
2022-10-21T22:22:49.847Z,4.63
2022-10-21T22:27:51.120Z,4.15
2022-10-21T22:32:52.373Z,5.13
2022-10-21T22:37:53.729Z,5.57
2022-10-21T22:42:54.965Z,5.82
2022-10-21T22:47:56.219Z,5.28
2022-10-21T22:52:57.459Z,5.00
2022-10-21T22:57:58.700Z,5.88
2022-10-21T23:02:59.981Z,4.85
2022-10-21T23:08:01.217Z,4.85
2022-10-21T23:13:02.816Z,5.78
2022-10-21T23:18:04.752Z,5.50
2022-10-21T23:23:06.209Z,5.90
2022-10-21T23:28:09.630Z,5.30
2022-10-21T23:33:10.990Z,6.20
2022-10-21T23:38:12.299Z,5.65
2022-10-21T23:43:13.621Z,6.45
2022-10-21T23:48:15.073Z,5.55
2022-10-21T23:53:16.341Z,3.85
2022-10-21T23:58:17.581Z,3.72
